createdAt,value
2023-04-02T00:01:51.035Z,99689.02
2023-04-02T00:04:22.169Z,99686.95
2023-04-02T00:06:53.815Z,99690.09
2023-04-02T00:09:29.598Z,99691.66
2023-04-02T00:11:56.426Z,99696.20
2023-04-02T00:14:28.053Z,99699.86
2023-04-02T00:16:57.008Z,99704.23
2023-04-02T00:19:55.575Z,99706.15
2023-04-02T00:22:30.661Z,99706.68
2023-04-02T00:25:03.266Z,99700.93
2023-04-02T00:27:30.597Z,99711.05
2023-04-02T00:29:58.468Z,99708.30
2023-04-02T00:32:27.860Z,99714.23
2023-04-02T00:34:54.950Z,99716.02
2023-04-02T00:37:27.309Z,99719.00
2023-04-02T00:40:01.420Z,99718.34
2023-04-02T00:42:30.552Z,99722.93
2023-04-02T00:44:58.214Z,99725.61
2023-04-02T00:47:31.061Z,99721.65
2023-04-02T00:50:13.777Z,99725.00
2023-04-02T00:52:43.320Z,99731.13
2023-04-02T00:55:24.670Z,99728.90
2023-04-02T00:57:52.280Z,99732.23
2023-04-02T01:00:33.444Z,99729.84
2023-04-02T01:03:12.334Z,99729.52
2023-04-02T01:05:41.739Z,99732.88
2023-04-02T01:08:38.951Z,99732.36
2023-04-02T01:11:27.695Z,99737.30
2023-04-02T01:14:02.326Z,99738.56
2023-04-02T01:16:32.368Z,99738.96
2023-04-02T01:19:21.245Z,99744.56
2023-04-02T01:22:41.036Z,99743.89
2023-04-02T01:25:12.921Z,99746.20
2023-04-02T01:27:49.853Z,99747.63
2023-04-02T01:30:17.530Z,99753.75
2023-04-02T01:32:44.709Z,99753.94
2023-04-02T01:35:11.836Z,99755.55
2023-04-02T01:38:05.790Z,99758.16
2023-04-02T01:40:58.474Z,99760.09
2023-04-02T01:43:44.120Z,99759.95
2023-04-02T01:46:25.554Z,99769.40
2023-04-02T01:48:53.840Z,99767.86
2023-04-02T01:51:33.873Z,99776.41
2023-04-02T01:54:05.319Z,99774.00
2023-04-02T01:56:31.741Z,99776.29
2023-04-02T01:58:59.080Z,99782.91
2023-04-02T02:01:53.234Z,99782.41
2023-04-02T02:04:20.074Z,99787.47
2023-04-02T02:06:47.290Z,99788.52
2023-04-02T02:09:23.051Z,99790.10
2023-04-02T02:11:50.155Z,99790.84
2023-04-02T02:14:22.845Z,99792.94
2023-04-02T02:16:50.143Z,99796.77
2023-04-02T02:19:26.439Z,99800.80
2023-04-02T02:22:00.501Z,99801.69
2023-04-02T02:24:31.004Z,99805.90
2023-04-02T02:27:33.625Z,99805.58
2023-04-02T02:30:10.893Z,99805.77
2023-04-02T02:32:51.684Z,99809.59
2023-04-02T02:35:27.700Z,99810.29
2023-04-02T02:38:33.874Z,99811.53
2023-04-02T02:41:23.902Z,99812.25
2023-04-02T02:44:08.775Z,99810.86
2023-04-02T02:46:40.139Z,99809.88
2023-04-02T02:49:12.563Z,99814.41
2023-04-02T02:51:43.600Z,99812.19
2023-04-02T02:54:12.526Z,99819.69
2023-04-02T02:56:47.294Z,99821.63
2023-04-02T02:59:16.245Z,99824.64
2023-04-02T03:01:44.440Z,99833.02
2023-04-02T03:04:11.081Z,99835.16
2023-04-02T03:06:39.555Z,99835.17
2023-04-02T03:09:05.821Z,99838.15
2023-04-02T03:12:08.057Z,99842.66
2023-04-02T03:14:39.613Z,99843.92
2023-04-02T03:17:20.712Z,99847.09
2023-04-02T03:19:54.594Z,99851.13
2023-04-02T03:22:31.518Z,99853.61
2023-04-02T03:25:04.140Z,99855.23
2023-04-02T03:27:34.562Z,99858.20
2023-04-02T03:30:20.235Z,99860.15
2023-04-02T03:32:50.608Z,99864.54
2023-04-02T03:35:42.429Z,99869.44
2023-04-02T03:38:21.452Z,99876.09
2023-04-02T03:41:04.385Z,99877.85
2023-04-02T03:43:54.584Z,99887.98
2023-04-02T03:46:33.341Z,99894.45
2023-04-02T03:49:05.765Z,99901.11
2023-04-02T03:51:38.739Z,99905.85
2023-04-02T03:54:11.845Z,99909.55
2023-04-02T03:56:40.055Z,99910.79
2023-04-02T03:59:47.997Z,99916.37
2023-04-02T04:02:39.206Z,99914.65
2023-04-02T04:05:17.738Z,99917.10
2023-04-02T04:07:44.505Z,99921.98
2023-04-02T04:10:19.067Z,99923.38
2023-04-02T04:12:50.448Z,99928.44
2023-04-02T04:15:33.057Z,99929.30
2023-04-02T04:18:38.939Z,99932.62
2023-04-02T04:21:36.352Z,99938.39
2023-04-02T04:24:23.664Z,99945.93
2023-04-02T04:27:03.190Z,99955.02
2023-04-02T04:30:03.201Z,99954.71
2023-04-02T04:32:38.223Z,99953.52
2023-04-02T04:35:31.631Z,99957.18
2023-04-02T04:38:15.948Z,99955.27
2023-04-02T04:40:53.096Z,99960.84
2023-04-02T04:43:55.603Z,99961.71
2023-04-02T04:46:30.801Z,99971.83
2023-04-02T04:49:11.590Z,99976.92
2023-04-02T04:51:59.088Z,99979.90
2023-04-02T04:54:27.400Z,99988.80
2023-04-02T04:56:59.589Z,99996.47
2023-04-02T04:59:35.223Z,100001.88
2023-04-02T05:02:22.999Z,100003.29
2023-04-02T05:04:52.096Z,100002.45
2023-04-02T05:07:28.675Z,100008.73
2023-04-02T05:10:07.916Z,100010.67
2023-04-02T05:12:43.257Z,100012.27
2023-04-02T05:15:41.314Z,100015.79
2023-04-02T05:18:26.612Z,100018.26
2023-04-02T05:21:13.691Z,100021.94
2023-04-02T05:23:58.940Z,100026.15
2023-04-02T05:26:32.445Z,100033.50
2023-04-02T05:29:29.242Z,100042.94
2023-04-02T05:32:05.353Z,100039.48
2023-04-02T05:34:36.723Z,100040.90
2023-04-02T05:37:06.489Z,100045.96
2023-04-02T05:39:33.939Z,100053.81
2023-04-02T05:42:07.499Z,100055.57
2023-04-02T05:45:15.500Z,100061.86
2023-04-02T05:47:43.850Z,100063.10
2023-04-02T05:50:26.398Z,100061.71
2023-04-02T05:53:17.086Z,100065.19
2023-04-02T05:56:31.316Z,100063.80
2023-04-02T05:59:07.693Z,100069.40
2023-04-02T06:01:45.059Z,100078.45
2023-04-02T06:04:46.664Z,100075.33
2023-04-02T06:07:23.187Z,100079.48
2023-04-02T06:10:05.125Z,100082.82
2023-04-02T06:12:42.889Z,100091.17
2023-04-02T06:15:14.236Z,100099.38
2023-04-02T06:18:00.860Z,100108.27
2023-04-02T06:20:27.745Z,100113.67
2023-04-02T06:23:09.304Z,100118.56
2023-04-02T06:25:42.233Z,100122.06
2023-04-02T06:28:16.645Z,100124.86
2023-04-02T06:30:54.535Z,100127.84
2023-04-02T06:33:21.228Z,100130.45
2023-04-02T06:35:50.608Z,100132.38
2023-04-02T06:38:28.955Z,100139.35
2023-04-02T06:41:11.121Z,100137.09
2023-04-02T06:43:52.310Z,100139.71
2023-04-02T06:46:35.588Z,100144.60
2023-04-02T06:49:25.037Z,100150.52
2023-04-02T06:52:00.110Z,100154.71
2023-04-02T06:54:26.910Z,100156.10
2023-04-02T06:56:57.745Z,100156.83
2023-04-02T06:59:36.748Z,100162.58
2023-04-02T07:02:28.309Z,100165.02
2023-04-02T07:05:04.012Z,100173.55
2023-04-02T07:07:31.737Z,100170.42
2023-04-02T07:10:00.426Z,100174.80
2023-04-02T07:12:26.974Z,100175.00
2023-04-02T07:14:53.505Z,100174.46
2023-04-02T07:17:21.063Z,100178.30
2023-04-02T07:19:50.821Z,100181.24
2023-04-02T07:22:19.883Z,100185.59
2023-04-02T07:24:49.954Z,100184.71
2023-04-02T07:27:16.585Z,100189.58
2023-04-02T07:29:43.134Z,100193.39
2023-04-02T07:32:10.933Z,100199.49
2023-04-02T07:34:37.914Z,100201.93
2023-04-02T07:37:04.453Z,100202.98
2023-04-02T07:39:31.040Z,100207.19
2023-04-02T07:42:00.185Z,100210.50
2023-04-02T07:44:27.917Z,100214.70
2023-04-02T07:46:54.969Z,100218.89
2023-04-02T07:49:21.595Z,100218.04
2023-04-02T07:51:50.750Z,100220.13
2023-04-02T07:54:17.055Z,100224.29
2023-04-02T07:56:43.486Z,100227.77
2023-04-02T07:59:10.520Z,100227.61
2023-04-02T08:01:37.084Z,100232.30
2023-04-02T08:04:06.928Z,100233.86
2023-04-02T08:06:33.394Z,100233.87
2023-04-02T08:09:03.031Z,100239.24
2023-04-02T08:11:31.530Z,100240.30
2023-04-02T08:14:01.048Z,100240.47
2023-04-02T08:16:28.182Z,100250.55
2023-04-02T08:18:54.811Z,100254.02
2023-04-02T08:21:21.359Z,100261.34
2023-04-02T08:23:50.336Z,100267.41
2023-04-02T08:26:17.981Z,100269.16
2023-04-02T08:28:44.444Z,100272.65
2023-04-02T08:31:10.819Z,100271.97
2023-04-02T08:33:37.257Z,100264.84
2023-04-02T08:36:03.996Z,100262.39
2023-04-02T08:38:30.463Z,100270.04
2023-04-02T08:41:00.730Z,100282.02
2023-04-02T08:43:40.078Z,100299.76
2023-04-02T08:46:54.197Z,100300.63
2023-04-02T08:49:31.529Z,100302.71
2023-04-02T08:51:59.035Z,100312.11
2023-04-02T08:54:31.733Z,100310.36
2023-04-02T08:57:19.271Z,100311.41
2023-04-02T08:59:47.181Z,100314.54
2023-04-02T09:02:27.395Z,100312.80
2023-04-02T09:04:56.531Z,100316.63
2023-04-02T09:07:23.622Z,100319.58
2023-04-02T09:09:50.590Z,100325.15
2023-04-02T09:12:31.286Z,100327.23
2023-04-02T09:15:10.332Z,100330.17
2023-04-02T09:17:50.561Z,100334.00
2023-04-02T09:20:29.374Z,100335.56
2023-04-02T09:22:56.481Z,100336.77
2023-04-02T09:25:26.708Z,100337.64
2023-04-02T09:27:55.412Z,100338.15
2023-04-02T09:30:31.027Z,100344.59
2023-04-02T09:33:06.712Z,100342.15
2023-04-02T09:35:53.755Z,100350.49
2023-04-02T09:38:32.110Z,100350.48
2023-04-02T09:41:00.730Z,100345.61
2023-04-02T09:43:32.794Z,100345.95
2023-04-02T09:46:18.045Z,100347.67
2023-04-02T09:48:52.607Z,100347.49
2023-04-02T09:51:22.264Z,100355.13
2023-04-02T09:53:58.921Z,100355.32
2023-04-02T09:56:25.850Z,100356.02
2023-04-02T09:59:04.437Z,100357.25
2023-04-02T10:01:35.856Z,100358.45
2023-04-02T10:04:04.892Z,100360.88
2023-04-02T10:06:34.403Z,100364.02
2023-04-02T10:09:26.894Z,100367.64
2023-04-02T10:11:54.813Z,100375.28
2023-04-02T10:14:27.840Z,100382.05
2023-04-02T10:17:00.680Z,100388.84
2023-04-02T10:19:32.715Z,100391.79
2023-04-02T10:22:04.591Z,100401.17
2023-04-02T10:24:31.128Z,100402.05
2023-04-02T10:27:02.079Z,100403.44
2023-04-02T10:29:43.388Z,100411.61
2023-04-02T10:32:31.587Z,100413.67
2023-04-02T10:35:15.161Z,100412.12
2023-04-02T10:38:06.498Z,100411.41
2023-04-02T10:40:39.149Z,100415.95
2023-04-02T10:43:38.534Z,100418.91
2023-04-02T10:46:25.628Z,100432.14
2023-04-02T10:49:03.013Z,100428.84
2023-04-02T10:51:38.165Z,100433.36
2023-04-02T10:54:27.086Z,100435.80
2023-04-02T10:56:56.632Z,100440.68
2023-04-02T10:59:32.222Z,100445.03
2023-04-02T11:02:04.092Z,100451.30
2023-04-02T11:04:38.608Z,100457.77
2023-04-02T11:07:14.889Z,100461.06
2023-04-02T11:09:46.241Z,100466.12
2023-04-02T11:12:26.611Z,100474.30
2023-04-02T11:14:55.051Z,100480.73
2023-04-02T11:17:22.698Z,100482.82
2023-04-02T11:19:49.153Z,100485.61
2023-04-02T11:22:24.986Z,100488.57
2023-04-02T11:24:56.586Z,100484.75
2023-04-02T11:27:28.883Z,100486.99
2023-04-02T11:30:01.834Z,100489.08
2023-04-02T11:32:42.237Z,100494.65
2023-04-02T11:35:37.126Z,100500.55
2023-04-02T11:38:10.249Z,100510.47
2023-04-02T11:40:44.337Z,100512.56
2023-04-02T11:43:32.713Z,100520.39
2023-04-02T11:46:04.334Z,100522.65
2023-04-02T11:48:35.570Z,100523.35
2023-04-02T11:51:21.661Z,100519.50
2023-04-02T11:53:58.784Z,100520.55
2023-04-02T11:56:47.451Z,100522.30
2023-04-02T11:59:38.769Z,100522.80
2023-04-02T12:02:05.371Z,100532.90
2023-04-02T12:04:47.213Z,100532.88
2023-04-02T12:07:51.249Z,100541.08
2023-04-02T12:10:21.034Z,100542.28
2023-04-02T12:12:48.228Z,100544.20
2023-04-02T12:15:33.413Z,100548.02
2023-04-02T12:18:15.809Z,100550.45
2023-04-02T12:20:46.627Z,100554.45
2023-04-02T12:23:23.500Z,100557.77
2023-04-02T12:26:02.811Z,100565.25
2023-04-02T12:28:33.143Z,100566.30
2023-04-02T12:31:11.442Z,100568.39
2023-04-02T12:33:41.981Z,100564.90
2023-04-02T12:36:13.357Z,100566.48
2023-04-02T12:38:46.203Z,100563.67
2023-04-02T12:41:32.766Z,100567.69
2023-04-02T12:44:14.726Z,100567.86
2023-04-02T12:46:42.192Z,100567.16
2023-04-02T12:49:20.372Z,100567.34
2023-04-02T12:51:47.705Z,100572.20
2023-04-02T12:54:19.988Z,100574.83
2023-04-02T12:56:47.864Z,100579.00
2023-04-02T12:59:28.737Z,100583.34
2023-04-02T13:01:58.223Z,100590.14
2023-04-02T13:04:25.474Z,100594.83
2023-04-02T13:06:56.122Z,100596.91
2023-04-02T13:09:33.728Z,100602.30
2023-04-02T13:12:00.940Z,100608.03
2023-04-02T13:14:27.670Z,100612.05
2023-04-02T13:16:54.939Z,100614.30
2023-04-02T13:19:21.464Z,100616.56
2023-04-02T13:21:48.184Z,100622.12
2023-04-02T13:24:21.736Z,100624.73
2023-04-02T13:26:48.964Z,100628.23
2023-04-02T13:29:20.783Z,100635.17
2023-04-02T13:31:47.323Z,100636.56
2023-04-02T13:34:14.114Z,100638.84
2023-04-02T13:36:40.409Z,100634.48
2023-04-02T13:39:06.810Z,100639.18
2023-04-02T13:41:44.323Z,100637.95
2023-04-02T13:44:24.173Z,100639.17
2023-04-02T13:46:51.751Z,100640.75
2023-04-02T13:49:18.332Z,100649.27
2023-04-02T13:51:53.667Z,100647.17
2023-04-02T13:54:30.472Z,100650.83
2023-04-02T13:56:57.169Z,100651.52
2023-04-02T13:59:24.240Z,100653.77
2023-04-02T14:01:55.148Z,100654.83
2023-04-02T14:04:27.326Z,100654.82
2023-04-02T14:07:51.302Z,100663.88
2023-04-02T14:10:39.171Z,100664.04
2023-04-02T14:13:08.427Z,100670.30
2023-04-02T14:15:57.518Z,100669.79
2023-04-02T14:18:29.867Z,100671.00
2023-04-02T14:21:32.454Z,100677.25
2023-04-02T14:24:08.067Z,100680.02
2023-04-02T14:26:44.809Z,100680.90
2023-04-02T14:29:28.158Z,100682.27
2023-04-02T14:32:05.714Z,100690.09
2023-04-02T14:34:50.478Z,100698.61
2023-04-02T14:37:29.680Z,100705.03
2023-04-02T14:40:24.163Z,100707.98
2023-04-02T14:42:57.580Z,100712.69
2023-04-02T14:45:46.716Z,100715.11
2023-04-02T14:48:23.998Z,100716.33
2023-04-02T14:50:57.716Z,100719.27
2023-04-02T14:53:33.191Z,100723.10
2023-04-02T14:56:03.159Z,100722.38
2023-04-02T14:58:37.595Z,100727.40
2023-04-02T15:01:13.082Z,100735.05
2023-04-02T15:04:02.976Z,100736.77
2023-04-02T15:06:40.985Z,100740.58
2023-04-02T15:09:16.061Z,100748.52
2023-04-02T15:11:55.416Z,100750.95
2023-04-02T15:14:24.682Z,100754.77
2023-04-02T15:16:51.005Z,100755.27
2023-04-02T15:19:18.424Z,100757.02
2023-04-02T15:21:57.637Z,100764.82
2023-04-02T15:24:41.902Z,100773.33
2023-04-02T15:27:27.028Z,100774.17
2023-04-02T15:29:59.050Z,100780.24
2023-04-02T15:32:31.369Z,100782.48
2023-04-02T15:35:04.085Z,100782.48
2023-04-02T15:37:45.345Z,100785.06
2023-04-02T15:40:24.591Z,100789.56
2023-04-02T15:43:02.319Z,100791.80
2023-04-02T15:45:44.651Z,100794.73
2023-04-02T15:48:32.177Z,100799.05
2023-04-02T15:51:14.914Z,100803.73
2023-04-02T15:53:49.192Z,100808.05
2023-04-02T15:56:39.972Z,100810.64
2023-04-02T15:59:28.136Z,100813.75
2023-04-02T16:02:11.376Z,100823.61
2023-04-02T16:05:10.545Z,100830.18
2023-04-02T16:07:42.536Z,100831.23
2023-04-02T16:10:41.214Z,100833.13
2023-04-02T16:13:38.897Z,100838.33
2023-04-02T16:16:17.274Z,100841.09
2023-04-02T16:18:57.787Z,100846.48
2023-04-02T16:21:30.031Z,100848.73
2023-04-02T16:23:56.369Z,100853.06
2023-04-02T16:26:25.909Z,100854.63
2023-04-02T16:29:01.304Z,100859.31
2023-04-02T16:31:33.755Z,100862.95
2023-04-02T16:34:32.508Z,100865.19
2023-04-02T16:37:29.088Z,100867.79
2023-04-02T16:40:10.536Z,100871.08
2023-04-02T16:42:49.200Z,100876.26
2023-04-02T16:45:57.058Z,100881.09
2023-04-02T16:48:26.116Z,100883.86
2023-04-02T16:51:11.858Z,100890.45
2023-04-02T16:54:01.380Z,100895.48
2023-04-02T16:57:02.568Z,100898.59
2023-04-02T16:59:41.901Z,100897.20
2023-04-02T17:02:34.528Z,100900.66
2023-04-02T17:05:03.728Z,100902.40
2023-04-02T17:07:43.186Z,100904.98
2023-04-02T17:10:31.063Z,100911.41
2023-04-02T17:13:39.667Z,100913.52
2023-04-02T17:16:21.357Z,100914.55
2023-04-02T17:18:52.406Z,100913.35
2023-04-02T17:21:30.327Z,100915.95
2023-04-02T17:24:02.023Z,100921.89
2023-04-02T17:26:30.789Z,100922.92
2023-04-02T17:28:59.641Z,100923.30
2023-04-02T17:31:33.234Z,100927.14
2023-04-02T17:34:09.184Z,100932.88
2023-04-02T17:36:40.464Z,100930.44
2023-04-02T17:39:21.689Z,100936.02
2023-04-02T17:42:18.058Z,100940.20
2023-04-02T17:44:56.598Z,100945.05
2023-04-02T17:47:32.335Z,100948.37
2023-04-02T17:50:14.077Z,100953.23
2023-04-02T17:52:43.498Z,100953.94
2023-04-02T17:55:10.051Z,100960.20
2023-04-02T17:57:51.549Z,100965.06
2023-04-02T18:00:30.171Z,100970.99
2023-04-02T18:03:18.423Z,100972.89
2023-04-02T18:06:09.256Z,100979.66
2023-04-02T18:08:44.831Z,100975.50
2023-04-02T18:11:16.900Z,100980.02
2023-04-02T18:13:58.419Z,100978.63
2023-04-02T18:16:49.102Z,100980.20
2023-04-02T18:19:34.646Z,100979.50
2023-04-02T18:22:22.139Z,100980.20
2023-04-02T18:25:15.285Z,100979.67
2023-04-02T18:27:57.538Z,100982.30
2023-04-02T18:30:33.580Z,100980.73
2023-04-02T18:33:22.317Z,100985.75
2023-04-02T18:36:23.151Z,100985.94
2023-04-02T18:39:01.276Z,100989.07
2023-04-02T18:41:39.158Z,100992.36
2023-04-02T18:44:30.219Z,100997.75
2023-04-02T18:47:15.425Z,100999.15
2023-04-02T18:49:47.773Z,101003.65
2023-04-02T18:52:17.524Z,101008.16
2023-04-02T18:55:06.617Z,101014.95
2023-04-02T18:57:38.137Z,101017.41
2023-04-02T19:00:31.472Z,101020.53
2023-04-02T19:03:27.037Z,101018.95
2023-04-02T19:06:03.473Z,101023.48
2023-04-02T19:08:41.407Z,101023.65
2023-04-02T19:11:15.286Z,101025.73
2023-04-02T19:13:44.256Z,101024.15
2023-04-02T19:16:16.932Z,101026.40
2023-04-02T19:19:06.507Z,101027.96
2023-04-02T19:21:53.620Z,101033.01
2023-04-02T19:24:35.642Z,101036.15
2023-04-02T19:27:23.611Z,101034.92
2023-04-02T19:30:30.437Z,101035.77
2023-04-02T19:33:34.672Z,101036.63
2023-04-02T19:36:18.753Z,101042.55
2023-04-02T19:38:53.183Z,101039.24
2023-04-02T19:41:47.135Z,101039.92
2023-04-02T19:44:15.633Z,101039.75
2023-04-02T19:46:42.793Z,101040.61
2023-04-02T19:49:11.968Z,101042.34
2023-04-02T19:51:38.359Z,101048.05
2023-04-02T19:54:04.920Z,101046.83
2023-04-02T19:56:31.566Z,101051.87
2023-04-02T19:59:00.123Z,101051.87
2023-04-02T20:01:26.848Z,101050.98
2023-04-02T20:03:53.310Z,101057.39
2023-04-02T20:06:20.523Z,101060.16
2023-04-02T20:08:46.841Z,101058.92
2023-04-02T20:11:13.801Z,101057.35
2023-04-02T20:13:40.303Z,101062.38
2023-04-02T20:16:07.145Z,101066.38
2023-04-02T20:18:36.256Z,101066.36
2023-04-02T20:21:04.880Z,101070.88
2023-04-02T20:23:31.212Z,101074.88
2023-04-02T20:25:57.719Z,101074.84
2023-04-02T20:28:25.952Z,101076.58
2023-04-02T20:30:52.870Z,101072.74
2023-04-02T20:33:22.054Z,101080.21
2023-04-02T20:35:50.005Z,101081.06
2023-04-02T20:38:17.519Z,101083.98
2023-04-02T20:40:45.643Z,101083.27
2023-04-02T20:43:12.330Z,101086.39
2023-04-02T20:45:38.721Z,101090.01
2023-04-02T20:48:05.478Z,101091.38
2023-04-02T20:50:31.981Z,101088.77
2023-04-02T20:52:59.471Z,101099.68
2023-04-02T20:55:28.514Z,101100.70
2023-04-02T20:57:55.107Z,101105.20
2023-04-02T21:00:22.002Z,101107.60
2023-04-02T21:02:48.408Z,101109.32
2023-04-02T21:05:14.767Z,101106.34
2023-04-02T21:07:43.978Z,101110.48
2023-04-02T21:10:10.535Z,101117.94
2023-04-02T21:12:36.944Z,101119.48
2023-04-02T21:15:03.578Z,101122.05
2023-04-02T21:17:30.196Z,101123.77
2023-04-02T21:19:56.642Z,101125.48
2023-04-02T21:22:23.164Z,101126.67
2023-04-02T21:24:49.559Z,101127.35
2023-04-02T21:27:16.065Z,101127.88
2023-04-02T21:29:42.416Z,101130.13
2023-04-02T21:32:20.699Z,101129.26
2023-04-02T21:34:48.236Z,101133.55
2023-04-02T21:37:16.845Z,101133.36
2023-04-02T21:39:43.140Z,101139.24
2023-04-02T21:42:10.653Z,101138.70
2023-04-02T21:44:36.945Z,101138.15
2023-04-02T21:47:03.464Z,101143.50
2023-04-02T21:49:29.901Z,101151.10
2023-04-02T21:51:56.292Z,101154.71
2023-04-02T21:54:22.867Z,101148.98
2023-04-02T21:56:49.289Z,101157.10
2023-04-02T21:59:16.911Z,101155.85
2023-04-02T22:01:49.232Z,101161.54
2023-04-02T22:04:16.807Z,101161.17
2023-04-02T22:06:44.507Z,101164.09
2023-04-02T22:09:13.579Z,101170.13
2023-04-02T22:11:46.281Z,101174.42
2023-04-02T22:14:12.747Z,101180.11
2023-04-02T22:16:39.959Z,101182.49
2023-04-02T22:19:09.877Z,101186.47
2023-04-02T22:21:36.822Z,101187.32
2023-04-02T22:24:05.737Z,101189.54
2023-04-02T22:26:33.365Z,101190.91
2023-04-02T22:29:00.569Z,101193.13
2023-04-02T22:31:29.689Z,101196.23
2023-04-02T22:33:57.442Z,101198.80
2023-04-02T22:36:25.105Z,101200.00
2023-04-02T22:38:51.702Z,101199.95
2023-04-02T22:41:28.619Z,101200.95
2023-04-02T22:43:56.334Z,101203.52
2023-04-02T22:46:23.470Z,101203.98
2023-04-02T22:48:50.107Z,101208.27
2023-04-02T22:51:18.651Z,101214.65
2023-04-02T22:53:45.574Z,101217.58
2023-04-02T22:56:18.395Z,101217.35
2023-04-02T22:58:45.534Z,101218.52
2023-04-02T23:01:25.711Z,101218.63
2023-04-02T23:03:53.380Z,101216.86
2023-04-02T23:06:20.589Z,101221.30
2023-04-02T23:08:47.211Z,101219.85
2023-04-02T23:11:22.013Z,101221.55
2023-04-02T23:13:51.040Z,101219.73
2023-04-02T23:16:18.167Z,101219.17
2023-04-02T23:18:47.247Z,101222.59
2023-04-02T23:21:14.373Z,101222.52
2023-04-02T23:23:41.009Z,101226.62
2023-04-02T23:26:11.159Z,101230.04
2023-04-02T23:28:38.592Z,101233.09
2023-04-02T23:31:06.896Z,101239.80
2023-04-02T23:33:33.644Z,101237.83
2023-04-02T23:36:05.189Z,101240.05
2023-04-02T23:38:31.497Z,101241.56
2023-04-02T23:40:57.763Z,101244.27
2023-04-02T23:43:24.063Z,101243.16
2023-04-02T23:45:50.790Z,101239.66
2023-04-02T23:48:17.112Z,101244.80
2023-04-02T23:50:44.447Z,101246.98
2023-04-02T23:53:11.386Z,101249.20
2023-04-02T23:55:38.357Z,101251.75
2023-04-02T23:58:04.986Z,101251.17
